createdAt,value
2018-06-15T00:00:36.265Z,30.80
2018-06-15T00:03:06.605Z,29.40
2018-06-15T00:05:36.145Z,30.82
2018-06-15T00:08:05.729Z,32.42
2018-06-15T00:10:35.268Z,34.25
2018-06-15T00:13:04.697Z,29.92
2018-06-15T00:15:34.145Z,26.67
2018-06-15T00:18:03.770Z,36.27
2018-06-15T00:20:33.285Z,28.00
2018-06-15T00:23:02.712Z,40.83
2018-06-15T00:25:32.199Z,33.80
2018-06-15T00:28:01.815Z,38.17
2018-06-15T00:30:31.306Z,35.87
2018-06-15T00:33:00.843Z,34.13
2018-06-15T00:35:30.421Z,34.67
2018-06-15T00:37:59.899Z,46.53
2018-06-15T00:40:29.763Z,42.37
2018-06-15T00:42:59.203Z,35.40
2018-06-15T00:45:28.759Z,36.87
2018-06-15T00:47:58.361Z,38.73
2018-06-15T00:50:27.778Z,47.37
2018-06-15T00:52:57.177Z,38.93
2018-06-15T00:55:26.874Z,41.17
2018-06-15T00:57:56.694Z,41.07
2018-06-15T01:00:26.051Z,39.03
2018-06-15T01:02:55.557Z,47.13
2018-06-15T01:05:25.183Z,42.27
2018-06-15T01:07:54.727Z,36.30
2018-06-15T01:10:24.179Z,35.07
2018-06-15T01:12:53.639Z,35.63
2018-06-15T01:15:23.258Z,34.00
2018-06-15T01:17:52.818Z,37.23
2018-06-15T01:20:22.323Z,40.83
2018-06-15T01:22:54.320Z,38.20
2018-06-15T01:25:23.814Z,42.97
2018-06-15T01:27:53.409Z,39.37
2018-06-15T01:30:22.876Z,35.90
2018-06-15T01:32:52.322Z,36.57
2018-06-15T01:35:21.922Z,39.73
2018-06-15T01:37:51.354Z,42.10
2018-06-15T01:40:20.794Z,36.23
2018-06-15T01:42:50.220Z,37.47
2018-06-15T01:45:19.759Z,35.13
2018-06-15T01:47:49.360Z,41.17
2018-06-15T01:50:18.826Z,34.60
2018-06-15T01:52:48.261Z,39.30
2018-06-15T01:55:18.364Z,31.73
2018-06-15T01:57:47.978Z,38.93
2018-06-15T02:00:17.436Z,33.23
2018-06-15T02:02:46.836Z,35.33
2018-06-15T02:05:16.390Z,34.60
2018-06-15T02:07:45.905Z,41.30
2018-06-15T02:10:15.338Z,35.80
2018-06-15T02:12:44.852Z,33.87
2018-06-15T02:15:14.295Z,35.33
2018-06-15T02:17:43.751Z,34.90
2018-06-15T02:20:13.196Z,33.87
2018-06-15T02:22:42.835Z,36.50
2018-06-15T02:25:12.389Z,30.17
2018-06-15T02:27:41.790Z,37.67
2018-06-15T02:30:11.234Z,32.07
2018-06-15T02:32:40.829Z,34.43
2018-06-15T02:35:10.232Z,37.97
2018-06-15T02:37:39.684Z,35.80
2018-06-15T02:40:09.283Z,35.17
2018-06-15T02:42:38.720Z,37.27
2018-06-15T02:45:08.176Z,36.07
2018-06-15T02:47:37.650Z,37.60
2018-06-15T02:50:07.269Z,36.53
2018-06-15T02:52:36.773Z,40.07
2018-06-15T02:55:06.265Z,42.07
2018-06-15T02:57:35.699Z,39.67
2018-06-15T03:00:05.902Z,35.17
2018-06-15T03:02:35.467Z,44.00
2018-06-15T03:05:04.919Z,34.73
2018-06-15T03:07:34.357Z,35.53
2018-06-15T03:10:04.041Z,40.23
2018-06-15T03:12:33.450Z,38.30
2018-06-15T03:15:02.866Z,34.70
2018-06-15T03:17:32.449Z,33.33
2018-06-15T03:20:02.027Z,34.87
2018-06-15T03:22:31.464Z,34.70
2018-06-15T03:25:01.010Z,37.83
2018-06-15T03:27:30.520Z,43.83
2018-06-15T03:30:00.118Z,38.90
2018-06-15T03:32:29.515Z,39.10
2018-06-15T03:34:58.931Z,38.13
2018-06-15T03:37:28.454Z,36.70
2018-06-15T03:39:57.872Z,38.70
2018-06-15T03:42:27.310Z,38.37
2018-06-15T03:44:56.811Z,44.03
2018-06-15T03:47:26.334Z,39.67
2018-06-15T03:49:55.752Z,40.93
2018-06-15T03:52:25.190Z,36.13
2018-06-15T03:54:54.748Z,34.80
2018-06-15T03:57:24.348Z,36.93
2018-06-15T03:59:53.779Z,38.10
2018-06-15T04:02:23.247Z,37.73
2018-06-15T04:04:52.794Z,38.20
2018-06-15T04:07:22.344Z,35.83
2018-06-15T04:09:51.796Z,42.43
2018-06-15T04:12:21.369Z,47.43
2018-06-15T04:14:50.879Z,42.87
2018-06-15T04:17:20.306Z,40.97
2018-06-15T04:19:49.837Z,41.03
2018-06-15T04:22:19.520Z,42.70
2018-06-15T04:24:48.942Z,42.30
2018-06-15T04:27:18.348Z,40.67
2018-06-15T04:29:47.764Z,48.40
2018-06-15T04:32:17.298Z,51.13
2018-06-15T04:34:46.792Z,47.27
2018-06-15T04:37:16.226Z,45.47
2018-06-15T04:39:45.719Z,47.23
2018-06-15T04:42:15.256Z,44.30
2018-06-15T04:44:44.720Z,48.80
2018-06-15T04:47:14.344Z,49.33
2018-06-15T04:49:43.896Z,45.92
2018-06-15T04:52:13.347Z,40.40
2018-06-15T04:54:42.835Z,43.15
2018-06-15T04:57:12.309Z,41.37
2018-06-15T04:59:41.616Z,40.85
2018-06-15T05:02:11.047Z,45.98
2018-06-15T05:04:40.513Z,37.15
2018-06-15T05:07:10.064Z,39.75
2018-06-15T05:09:39.614Z,37.65
2018-06-15T05:12:09.064Z,43.38
2018-06-15T05:14:38.501Z,40.60
2018-06-15T05:17:08.219Z,42.27
2018-06-15T05:19:37.654Z,43.40
2018-06-15T05:22:07.066Z,40.03
2018-06-15T05:24:36.276Z,41.83
2018-06-15T05:27:05.815Z,43.10
2018-06-15T05:29:35.271Z,48.08
2018-06-15T05:32:04.919Z,41.53
2018-06-15T05:34:34.550Z,48.05
2018-06-15T05:37:04.389Z,42.60
2018-06-15T05:39:33.792Z,43.65
2018-06-15T05:42:03.190Z,37.80
2018-06-15T05:44:32.723Z,45.20
2018-06-15T05:47:02.239Z,40.73
2018-06-15T05:49:31.662Z,36.58
2018-06-15T05:52:01.106Z,35.60
2018-06-15T05:54:30.560Z,40.05
2018-06-15T05:57:00.083Z,45.35
2018-06-15T05:59:29.540Z,43.87
2018-06-15T06:01:58.979Z,40.30
2018-06-15T06:04:28.526Z,40.88
2018-06-15T06:06:58.471Z,44.60
2018-06-15T06:09:27.895Z,39.70
2018-06-15T06:11:57.451Z,41.30
2018-06-15T06:14:27.084Z,52.58
2018-06-15T06:16:56.949Z,59.50
2018-06-15T06:19:26.367Z,45.35
2018-06-15T06:21:55.855Z,53.92
2018-06-15T06:24:25.397Z,43.20
2018-06-15T06:26:54.897Z,42.58
2018-06-15T06:29:24.231Z,38.95
2018-06-15T06:31:53.839Z,36.73
2018-06-15T06:34:23.346Z,39.42
2018-06-15T06:36:52.843Z,44.73
2018-06-15T06:39:22.242Z,45.23
2018-06-15T06:41:51.774Z,44.13
2018-06-15T06:44:21.203Z,36.90
2018-06-15T06:46:50.647Z,43.28
2018-06-15T06:49:20.204Z,41.30
2018-06-15T06:51:49.709Z,40.90
2018-06-15T06:54:19.155Z,44.60
2018-06-15T06:56:48.596Z,41.98
2018-06-15T06:59:18.188Z,42.65
2018-06-15T07:01:48.026Z,45.90
2018-06-15T07:04:17.154Z,43.63
2018-06-15T07:06:46.603Z,39.38
2018-06-15T07:09:16.163Z,41.73
2018-06-15T07:11:45.606Z,39.58
2018-06-15T07:14:15.027Z,37.33
2018-06-15T07:16:44.481Z,36.77
2018-06-15T07:19:14.163Z,39.05
2018-06-15T07:21:43.632Z,38.65
2018-06-15T07:24:13.056Z,37.80
2018-06-15T07:26:42.340Z,44.23
2018-06-15T07:29:11.879Z,38.90
2018-06-15T07:31:41.360Z,37.93
2018-06-15T07:34:10.803Z,39.33
2018-06-15T07:36:40.325Z,32.23
2018-06-15T07:39:11.677Z,32.55
2018-06-15T07:41:41.174Z,34.92
2018-06-15T07:44:10.678Z,35.33
2018-06-15T07:46:40.194Z,32.70
2018-06-15T07:49:09.655Z,31.15
2018-06-15T07:51:39.101Z,34.20
2018-06-15T07:54:08.914Z,36.05
2018-06-15T07:56:39.567Z,33.48
2018-06-15T07:59:09.042Z,35.45
2018-06-15T08:01:38.524Z,32.67
2018-06-15T08:04:10.108Z,33.85
2018-06-15T08:06:39.624Z,36.23
2018-06-15T08:09:09.999Z,29.37
2018-06-15T08:11:39.483Z,30.20
2018-06-15T08:14:08.960Z,35.52
2018-06-15T08:16:38.391Z,27.52
2018-06-15T08:19:07.962Z,29.30
2018-06-15T08:21:37.420Z,28.83
2018-06-15T08:24:07.322Z,30.65
2018-06-15T08:26:36.767Z,30.37
2018-06-15T08:29:06.130Z,30.02
2018-06-15T08:31:35.979Z,26.73
2018-06-15T08:34:05.434Z,27.07
2018-06-15T08:36:34.867Z,29.12
2018-06-15T08:39:06.287Z,28.45
2018-06-15T08:41:36.406Z,27.80
2018-06-15T08:44:05.963Z,28.40
2018-06-15T08:46:35.392Z,25.75
2018-06-15T08:49:04.840Z,26.57
2018-06-15T08:51:35.343Z,22.73
2018-06-15T08:54:04.908Z,22.85
2018-06-15T08:56:34.318Z,23.20
2018-06-15T08:59:03.767Z,22.80
2018-06-15T09:01:33.230Z,20.48
2018-06-15T09:04:02.744Z,22.70
2018-06-15T09:06:32.176Z,21.05
2018-06-15T09:09:01.604Z,21.93
2018-06-15T09:11:31.116Z,20.75
2018-06-15T09:14:00.531Z,24.47
2018-06-15T09:16:29.963Z,22.82
2018-06-15T09:18:59.513Z,17.40
2018-06-15T09:21:29.084Z,18.25
2018-06-15T09:23:58.534Z,19.42
2018-06-15T09:26:27.951Z,21.85
2018-06-15T09:28:57.497Z,18.90
2018-06-15T09:31:27.024Z,17.32
2018-06-15T09:33:56.923Z,17.70
2018-06-15T09:36:26.344Z,19.90
2018-06-15T09:38:55.918Z,16.20
2018-06-15T09:41:26.194Z,17.35
2018-06-15T09:43:56.055Z,15.50
2018-06-15T09:46:26.024Z,15.18
2018-06-15T09:48:56.132Z,14.13
2018-06-15T09:51:25.633Z,14.87
2018-06-15T09:53:55.130Z,15.35
2018-06-15T09:56:24.628Z,14.60
2018-06-15T09:58:56.041Z,12.40
2018-06-15T10:01:25.609Z,11.65
2018-06-15T10:03:55.663Z,11.05
2018-06-15T10:06:25.154Z,12.20
2018-06-15T10:08:55.085Z,12.33
2018-06-15T10:11:24.571Z,11.48
2018-06-15T10:13:54.097Z,11.33
2018-06-15T10:16:23.556Z,11.03
2018-06-15T10:18:53.170Z,10.30
2018-06-15T10:21:22.687Z,13.58
2018-06-15T10:23:52.172Z,10.13
2018-06-15T10:26:21.639Z,12.10
2018-06-15T10:28:51.173Z,9.60
2018-06-15T10:31:20.787Z,9.25
2018-06-15T10:33:50.385Z,7.55
2018-06-15T10:36:19.835Z,8.78
2018-06-15T10:38:49.336Z,7.05
2018-06-15T10:41:18.842Z,8.10
2018-06-15T10:43:48.269Z,8.45
2018-06-15T10:46:17.827Z,9.10
2018-06-15T10:48:47.402Z,8.18
2018-06-15T10:51:16.859Z,8.05
2018-06-15T10:53:46.307Z,7.85
2018-06-15T10:56:15.811Z,7.83
2018-06-15T10:58:45.369Z,6.95
2018-06-15T11:01:14.832Z,6.42
2018-06-15T11:03:44.564Z,7.58
2018-06-15T11:06:13.983Z,8.40
2018-06-15T11:08:43.494Z,7.53
2018-06-15T11:11:12.998Z,7.58
2018-06-15T11:13:42.406Z,6.70
2018-06-15T11:16:11.805Z,7.42
2018-06-15T11:18:41.360Z,6.72
2018-06-15T11:21:10.770Z,7.62
2018-06-15T11:23:40.276Z,7.35
2018-06-15T11:26:10.235Z,10.50
2018-06-15T11:28:39.723Z,7.67
2018-06-15T11:31:09.167Z,7.08
2018-06-15T11:33:38.611Z,7.10
2018-06-15T11:36:08.291Z,11.05
2018-06-15T11:38:37.783Z,6.37
2018-06-15T11:41:07.389Z,6.50
2018-06-15T11:43:36.795Z,7.37
2018-06-15T11:46:06.421Z,5.58
2018-06-15T11:48:35.975Z,6.05
2018-06-15T11:51:05.392Z,4.90
2018-06-15T11:53:34.812Z,5.87
2018-06-15T11:56:04.485Z,3.80
2018-06-15T11:58:35.994Z,3.62
2018-06-15T12:01:05.508Z,3.12
2018-06-15T12:03:34.932Z,3.70
2018-06-15T12:06:04.532Z,4.08
2018-06-15T12:08:34.088Z,4.25
2018-06-15T12:11:03.550Z,4.87
2018-06-15T12:13:43.269Z,6.25
2018-06-15T12:16:12.691Z,5.17
2018-06-15T12:18:42.148Z,4.50
2018-06-15T12:21:11.680Z,3.92
2018-06-15T12:23:41.093Z,5.62
2018-06-15T12:26:10.537Z,4.58
2018-06-15T12:28:40.152Z,5.83
2018-06-15T12:31:09.540Z,3.90
2018-06-15T12:33:38.973Z,3.02
2018-06-15T12:36:08.395Z,4.10
2018-06-15T12:38:38.015Z,3.47
2018-06-15T12:41:07.502Z,4.90
2018-06-15T12:43:36.925Z,4.45
2018-06-15T12:46:06.585Z,5.92
2018-06-15T12:48:36.097Z,5.42
2018-06-15T12:51:11.996Z,4.47
2018-06-15T12:53:41.499Z,5.85
2018-06-15T12:56:11.073Z,4.72
2018-06-15T12:58:40.544Z,4.75
2018-06-15T13:01:09.701Z,4.92
2018-06-15T13:03:39.310Z,5.20
2018-06-15T13:06:08.871Z,4.20
2018-06-15T13:08:38.312Z,4.65
2018-06-15T13:11:07.769Z,4.08
2018-06-15T13:13:37.236Z,4.12
2018-06-15T13:16:06.654Z,9.35
2018-06-15T13:18:36.134Z,5.20
2018-06-15T13:21:05.644Z,4.72
2018-06-15T13:23:35.240Z,5.03
2018-06-15T13:26:05.253Z,4.75
2018-06-15T13:28:34.694Z,4.65
2018-06-15T13:31:04.258Z,9.50
2018-06-15T13:33:33.901Z,6.47
2018-06-15T13:36:03.352Z,5.60
2018-06-15T13:38:32.786Z,5.40
2018-06-15T13:41:02.719Z,4.55
2018-06-15T13:43:32.144Z,4.60
2018-06-15T13:46:02.018Z,5.78
2018-06-15T13:48:31.435Z,5.08
2018-06-15T13:51:01.511Z,7.60
2018-06-15T13:53:31.803Z,5.17
2018-06-15T13:56:01.343Z,4.95
2018-06-15T13:58:30.796Z,4.90
2018-06-15T14:01:00.309Z,4.70
2018-06-15T14:03:29.752Z,6.08
2018-06-15T14:05:59.153Z,6.50
2018-06-15T14:08:28.549Z,4.55
2018-06-15T14:10:58.044Z,4.65
2018-06-15T14:13:27.659Z,5.83
2018-06-15T14:15:57.054Z,5.58
2018-06-15T14:18:26.458Z,5.75
2018-06-15T14:20:55.884Z,10.10
2018-06-15T14:23:25.303Z,7.70
2018-06-15T14:25:54.756Z,7.45
2018-06-15T14:28:24.296Z,4.92
2018-06-15T14:30:53.764Z,3.77
2018-06-15T14:33:23.184Z,4.55
2018-06-15T14:35:52.580Z,3.83
2018-06-15T14:38:22.102Z,7.03
2018-06-15T14:40:51.643Z,5.25
2018-06-15T14:43:21.040Z,7.58
2018-06-15T14:45:50.463Z,5.08
2018-06-15T14:48:19.955Z,10.35
2018-06-15T14:50:49.526Z,4.65
2018-06-15T14:53:19.123Z,3.85
2018-06-15T14:55:48.606Z,4.67
2018-06-15T14:58:18.357Z,3.60
2018-06-15T15:00:47.939Z,3.05
2018-06-15T15:03:17.584Z,3.20
2018-06-15T15:05:47.124Z,3.60
2018-06-15T15:08:16.586Z,3.90
2018-06-15T15:10:46.131Z,3.72
2018-06-15T15:13:15.541Z,6.90
2018-06-15T15:15:45.064Z,4.75
2018-06-15T15:18:14.665Z,3.77
2018-06-15T15:20:44.111Z,3.02
2018-06-15T15:23:13.527Z,3.95
2018-06-15T15:25:43.083Z,4.58
2018-06-15T15:28:12.680Z,3.62
2018-06-15T15:30:42.173Z,4.15
2018-06-15T15:33:11.703Z,4.55
2018-06-15T15:35:41.208Z,4.58
2018-06-15T15:38:10.736Z,4.87
2018-06-15T15:40:40.420Z,3.12
2018-06-15T15:43:09.986Z,4.30
2018-06-15T15:45:39.473Z,3.33
2018-06-15T15:48:08.963Z,4.78
2018-06-15T15:50:38.443Z,5.53
2018-06-15T15:53:07.945Z,4.60
2018-06-15T15:55:37.528Z,3.42
2018-06-15T15:58:07.101Z,5.70
2018-06-15T16:00:36.547Z,2.40
2018-06-15T16:03:06.047Z,3.25
2018-06-15T16:05:35.613Z,4.67
2018-06-15T16:08:05.077Z,3.50
2018-06-15T16:10:34.602Z,5.30
2018-06-15T16:13:04.138Z,5.00
2018-06-15T16:15:33.644Z,9.98
2018-06-15T16:18:03.083Z,6.55
2018-06-15T16:20:32.663Z,4.33
2018-06-15T16:23:02.281Z,4.50
2018-06-15T16:25:31.804Z,3.52
2018-06-15T16:28:01.391Z,5.90
2018-06-15T16:30:30.918Z,2.87
2018-06-15T16:33:00.458Z,9.23
2018-06-15T16:35:29.873Z,6.37
2018-06-15T16:37:59.382Z,5.58
2018-06-15T16:40:28.982Z,5.65
2018-06-15T16:42:58.436Z,4.08
2018-06-15T16:45:27.919Z,7.58
2018-06-15T16:47:57.547Z,8.08
2018-06-15T16:50:27.013Z,3.98
2018-06-15T16:52:56.489Z,5.25
2018-06-15T16:55:25.891Z,3.50
2018-06-15T16:57:55.436Z,4.17
2018-06-15T17:00:25.689Z,5.90
2018-06-15T17:02:55.414Z,5.70
2018-06-15T17:05:24.812Z,5.33
2018-06-15T17:07:54.316Z,4.92
2018-06-15T17:10:23.839Z,9.85
2018-06-15T17:12:53.288Z,6.45
2018-06-15T17:15:22.788Z,3.50
2018-06-15T17:17:52.238Z,5.37
2018-06-15T17:20:21.722Z,6.47
2018-06-15T17:22:51.227Z,8.58
2018-06-15T17:25:20.790Z,5.58
2018-06-15T17:27:50.291Z,7.05
2018-06-15T17:30:19.719Z,4.80
2018-06-15T17:32:49.205Z,5.12
2018-06-15T17:35:18.764Z,4.03
2018-06-15T17:37:48.252Z,4.83
2018-06-15T17:40:17.739Z,5.50
2018-06-15T17:42:47.192Z,7.90
2018-06-15T17:45:16.710Z,6.90
2018-06-15T17:47:46.266Z,4.85
2018-06-15T17:50:15.722Z,7.03
2018-06-15T17:52:45.209Z,4.62
2018-06-15T17:55:14.807Z,7.37
2018-06-15T17:57:44.292Z,7.17
2018-06-15T18:00:13.730Z,6.05
2018-06-15T18:02:43.275Z,6.50
2018-06-15T18:05:12.804Z,6.37
2018-06-15T18:07:42.246Z,8.55
2018-06-15T18:10:11.727Z,7.95
2018-06-15T18:12:41.280Z,8.18
2018-06-15T18:15:10.898Z,8.15
2018-06-15T18:17:40.703Z,6.53
2018-06-15T18:20:10.050Z,5.97
2018-06-15T18:22:39.531Z,7.00
2018-06-15T18:25:09.663Z,4.95
2018-06-15T18:27:39.111Z,6.00
2018-06-15T18:30:09.544Z,11.88
2018-06-15T18:32:39.474Z,5.67
2018-06-15T18:35:09.134Z,4.22
2018-06-15T18:37:38.611Z,9.28
2018-06-15T18:40:08.087Z,7.72
2018-06-15T18:42:37.691Z,8.90
2018-06-15T18:45:07.282Z,6.25
2018-06-15T18:47:36.754Z,6.70
2018-06-15T18:50:06.493Z,6.87
2018-06-15T18:52:36.269Z,8.13
2018-06-15T18:55:06.015Z,4.80
2018-06-15T18:57:35.475Z,4.15
2018-06-15T19:00:05.032Z,5.45
2018-06-15T19:02:34.567Z,11.38
2018-06-15T19:05:04.165Z,7.42
2018-06-15T19:07:33.728Z,5.20
2018-06-15T19:10:03.467Z,6.45
2018-06-15T19:12:32.940Z,6.30
2018-06-15T19:15:02.811Z,6.53
2018-06-15T19:17:32.370Z,6.28
2018-06-15T19:20:01.835Z,5.40
2018-06-15T19:22:31.311Z,7.22
2018-06-15T19:25:00.899Z,8.75
2018-06-15T19:27:30.354Z,6.83
2018-06-15T19:29:59.809Z,7.58
2018-06-15T19:32:29.349Z,6.15
2018-06-15T19:34:58.839Z,5.50
2018-06-15T19:37:28.302Z,6.78
2018-06-15T19:39:57.904Z,5.92
2018-06-15T19:42:27.574Z,7.17
2018-06-15T19:44:57.002Z,7.90
2018-06-15T19:47:26.451Z,8.08
2018-06-15T19:49:55.945Z,9.50
2018-06-15T19:52:25.533Z,5.00
2018-06-15T19:54:55.004Z,6.10
2018-06-15T19:57:24.522Z,4.00
2018-06-15T19:59:54.070Z,7.95
2018-06-15T20:02:23.545Z,4.72
2018-06-15T20:04:53.001Z,8.83
2018-06-15T20:07:22.660Z,8.08
2018-06-15T20:09:52.340Z,8.03
2018-06-15T20:12:21.910Z,7.95
2018-06-15T20:14:51.328Z,8.70
2018-06-15T20:17:20.868Z,8.63
2018-06-15T20:19:50.248Z,13.70
2018-06-15T20:22:19.680Z,10.80
2018-06-15T20:24:48.830Z,9.13
2018-06-15T20:27:18.365Z,8.03
2018-06-15T20:29:47.828Z,9.20
2018-06-15T20:32:17.272Z,13.90
2018-06-15T20:34:46.791Z,8.93
2018-06-15T20:37:16.427Z,11.00
2018-06-15T20:39:45.915Z,15.93
2018-06-15T20:42:15.345Z,9.58
2018-06-15T20:44:44.852Z,17.67
2018-06-15T20:47:14.343Z,14.07
2018-06-15T20:49:43.861Z,13.55
2018-06-15T20:52:13.330Z,13.38
2018-06-15T20:54:43.060Z,14.00
2018-06-15T20:57:12.829Z,14.28
2018-06-15T20:59:42.442Z,12.88
2018-06-15T21:02:12.677Z,17.87
2018-06-15T21:05:44.997Z,15.05
2018-06-15T21:08:14.576Z,12.47
2018-06-15T21:10:44.207Z,10.63
2018-06-15T21:13:13.703Z,10.13
2018-06-15T21:15:56.998Z,12.18
2018-06-15T21:18:27.565Z,12.37
2018-06-15T21:20:57.869Z,12.40
2018-06-15T21:23:28.596Z,10.75
2018-06-15T21:25:58.310Z,9.33
2018-06-15T21:28:28.240Z,10.60
2018-06-15T21:30:58.382Z,13.78
2018-06-15T21:33:28.771Z,10.88
2018-06-15T21:35:58.616Z,12.45
2018-06-15T21:38:41.100Z,11.48
2018-06-15T21:41:11.124Z,12.70
2018-06-15T21:43:41.461Z,12.00
2018-06-15T21:46:13.107Z,12.33
2018-06-15T21:48:43.587Z,18.50
2018-06-15T21:51:13.400Z,16.82
2018-06-15T21:53:44.841Z,20.48
2018-06-15T21:56:14.422Z,24.98
2018-06-15T21:58:44.319Z,29.90
2018-06-15T22:01:14.680Z,34.60
2018-06-15T22:03:44.028Z,33.25
2018-06-15T22:06:14.023Z,32.83
2018-06-15T22:08:44.005Z,32.33
2018-06-15T22:11:14.324Z,33.15
2018-06-15T22:13:45.736Z,27.37
2018-06-15T22:16:15.933Z,30.43
2018-06-15T22:18:47.377Z,28.23
2018-06-15T22:21:18.662Z,26.07
2018-06-15T22:23:52.299Z,30.50
2018-06-15T22:26:22.024Z,25.50
2018-06-15T22:28:52.005Z,24.53
2018-06-15T22:31:21.811Z,23.15
2018-06-15T22:33:51.570Z,22.23
2018-06-15T22:36:21.370Z,21.87
2018-06-15T22:38:50.907Z,19.60
2018-06-15T22:41:20.895Z,19.37
2018-06-15T22:43:50.676Z,21.50
2018-06-15T22:46:20.217Z,22.03
2018-06-15T22:48:49.829Z,17.93
2018-06-15T22:51:19.317Z,18.00
2018-06-15T22:53:48.928Z,17.87
2018-06-15T22:56:18.515Z,20.13
2018-06-15T22:58:47.937Z,18.00
2018-06-15T23:01:17.372Z,21.30
2018-06-15T23:03:47.076Z,18.50
2018-06-15T23:06:16.557Z,18.50
2018-06-15T23:08:45.994Z,17.67
2018-06-15T23:11:15.575Z,16.10
2018-06-15T23:13:45.563Z,18.87
2018-06-15T23:16:15.006Z,18.37
2018-06-15T23:18:44.470Z,17.97
2018-06-15T23:21:14.283Z,15.67
2018-06-15T23:23:43.909Z,16.07
2018-06-15T23:26:13.345Z,20.00
2018-06-15T23:28:42.971Z,19.57
2018-06-15T23:31:12.488Z,20.90
2018-06-15T23:33:42.034Z,24.13
2018-06-15T23:36:11.509Z,24.30
2018-06-15T23:38:40.996Z,29.07
2018-06-15T23:41:10.552Z,30.23
2018-06-15T23:43:40.055Z,27.33
2018-06-15T23:46:09.614Z,28.10
2018-06-15T23:48:39.151Z,27.13
2018-06-15T23:51:08.708Z,30.03
2018-06-15T23:53:38.207Z,21.83
2018-06-15T23:56:07.628Z,24.60
2018-06-15T23:58:37.101Z,21.27
